Nearby METAR Reports



KADS - Dallas/Addison, Texas, USA
Distance from station: SSW 10mi, 16km
Updated: Wed, 12-Aug-2020 3:47pm CDT
Partly cloudy
Partly cloudy
 Wind from S
Wind: S 13 mph , 20 km/h, Gust: 18 mph , 30 km/h
Temperature: 99°F , 37°C
Dew Point: 68°F , 20°C
Humidity: 37%
Barometer: 29.90 inHg , 1012.5 hPa
Clouds: Partly cloudy
Visibility: 10 miles , 16 km
Cloud details: Partly cloudy 7500 ft
2020/08/12 20:47 KADS 122047Z 18011G16KT 10SM SCT075 37/20 A2990
KTKI - Mckinney, Texas, USA
Distance from station: ENE 11mi, 18km
Updated: Wed, 12-Aug-2020 3:53pm CDT
Few Clouds
Few Clouds
 Wind from E
Wind: E 15 mph , 24 km/h, Gust: 22 mph , 35 km/h
Temperature: 97°F , 36°C
Heat Index: 110°F , 43°C
Dew Point: 75°F , 24°C
Humidity: 50%
Barometer: 29.91 inHg , 1012.9 hPa
Clouds: Few Clouds
Visibility: 10 miles , 16 km
Cloud details: Few Clouds 6000 ft
2020/08/12 20:53 KTKI 122053Z 08013G19KT 10SM FEW060 36/24 A2991 RMK AO2 LTG DSNT N AND NW SLP119 T03610244 56016
 
KDAL - Dallas/Love Fld, Texas, USA
Distance from station: SSW 18mi, 30km
Updated: Wed, 12-Aug-2020 3:53pm CDT
Partly cloudy
Partly cloudy
 Wind from SSE
Wind: SSE 10 mph , 17 km/h
Temperature: 100°F , 38°C
Dew Point: 70°F , 21°C
Humidity: 37%
Barometer: 29.88 inHg , 1011.9 hPa
Clouds: Partly cloudy
Visibility: 10 miles , 16 km
Cloud details: Few Clouds 6000 ft
Few Clouds 18000 ft
Partly cloudy 30000 ft
2020/08/12 20:53 KDAL 122053Z 16009KT 10SM FEW060 FEW180 SCT300 38/21 A2988 RMK AO2 SLP108 CB DSNT NE E MOV SE T03830206 58022
KDFW - Dallas/Ft Worth, Texas, USA
Distance from station: SW 21mi, 34km
Updated: Wed, 12-Aug-2020 3:53pm CDT
Partly cloudy
Partly cloudy
 Wind from S
Wind: S 12 mph , 19 km/h
Temperature: 100°F , 38°C
Dew Point: 70°F , 21°C
Humidity: 37%
Barometer: 29.87 inHg , 1011.5 hPa
Clouds: Partly cloudy
Visibility: 10 miles , 16 km
Cloud details: Few Clouds 6500 ft
Partly cloudy 30000 ft
2020/08/12 20:53 KDFW 122053Z 18010KT 10SM FEW065 SCT300 38/21 A2987 RMK AO2 SLP104 CB DSNT N-E MOV SE TCU DSNT N T03780211 58020
 
KF46 - Rockwall, Texas, USA
Distance from station: ESE 22mi, 35km
Updated: Wed, 12-Aug-2020 3:55pm CDT
Overcast
Overcast
 Wind from ESE
Wind: ESE 17 mph , 28 km/h, Gust: 23 mph , 37 km/h
Temperature: 93°F , 34°C
Heat Index: 103°F , 39°C
Dew Point: 73°F , 23°C
Humidity: 53%
Barometer: 29.90 inHg , 1012.5 hPa
Clouds: Overcast
Visibility: 10 miles , 16 km
Cloud details: Mostly cloudy 6000 ft
Overcast 8000 ft
2020/08/12 20:55 KF46 122055Z AUTO 11015G20KT 10SM BKN060 OVC080 34/23 A2990 RMK AO2 T03390233
KDTO - Denton, Texas, USA
Distance from station: WNW 27mi, 43km
Updated: Wed, 12-Aug-2020 3:53pm CDT
Partly cloudy
Partly cloudy
 Wind from ESE
Wind: ESE 7 mph , 11 km/h
Temperature: 100°F , 38°C
Dew Point: 70°F , 21°C
Humidity: 37%
Barometer: 29.89 inHg , 1012.2 hPa
Clouds: Partly cloudy
Visibility: 10 miles , 16 km
Cloud details: Partly cloudy 6000 ft
2020/08/12 20:53 KDTO 122053Z 11006KT 10SM SCT060 38/21 A2989 RMK AO2 LTG DSNT NE SLP109 T03780206 58018
 
KHQZ - Mesquite, Texas, USA
Distance from station: SSE 28mi, 44km
Updated: Wed, 12-Aug-2020 3:50pm CDT
Partly cloudy
Partly cloudy
 Wind from ESE
Wind: ESE 5 mph , 7 km/h
Temperature: 99°F , 37°C
Dew Point: 70°F , 21°C
Humidity: 39%
Barometer: 29.89 inHg , 1012.2 hPa
Clouds: Partly cloudy
Visibility: 10 miles , 16 km
Cloud details: Partly cloudy 6000 ft
2020/08/12 20:50 KHQZ 122050Z 12004KT 10SM SCT060 37/21 A2989
KRBD - Dallas/Redbird, Texas, USA
Distance from station: SSW 30mi, 48km
Updated: Wed, 12-Aug-2020 3:53pm CDT
Clear
Clear
 Wind from SE
Wind: SE 10 mph , 17 km/h
Temperature: 100°F , 38°C
Dew Point: 68°F , 20°C
Humidity: 35%
Barometer: 29.88 inHg , 1011.9 hPa
Clouds: Clear
Visibility: 10 miles , 16 km
2020/08/12 20:53 KRBD 122053Z 13009KT 10SM CLR 38/20 A2988 RMK AO2 SLP107 T03780200 58021 $
 
KGPM - Grand Prairie, Texas, USA
Distance from station: SSW 33mi, 53km
Updated: Wed, 12-Aug-2020 3:50pm CDT
Clear
Clear
 Wind from SSE
Wind: SSE 7 mph , 11 km/h
Temperature: 100°F , 38°C
Dew Point: 52°F , 11°C
Humidity: 20%
Barometer: 29.89 inHg , 1012.2 hPa
Clouds: Clear
Visibility: 10 miles , 16 km
2020/08/12 20:50 KGPM 122050Z 15006KT 10SM SKC 38/11 A2989
KAFW - Ft Worth/Allianc, Texas, USA
Distance from station: WSW 34mi, 55km
Updated: Wed, 12-Aug-2020 3:53pm CDT
Partly cloudy
Partly cloudy
 Wind from ESE
Wind: ESE 6 mph , 9 km/h
Temperature: 100°F , 38°C
Dew Point: 68°F , 20°C
Humidity: 35%
Barometer: 29.87 inHg , 1011.5 hPa
Clouds: Partly cloudy
Visibility: 10 miles , 16 km
Cloud details: Partly cloudy 7000 ft
Partly cloudy 30000 ft
2020/08/12 20:53 KAFW 122053Z 12005KT 10SM SCT070 SCT300 38/20 A2987 RMK AO2 SLP095 CB DSNT NE MOV SE TCU DSNT NE-E T03830200 56020
 
KLNC - Lancaster, Texas, USA
Distance from station: S 36mi, 58km
Updated: Wed, 12-Aug-2020 3:55pm CDT
Partly cloudy
Partly cloudy
 Wind from SSE
Wind: SSE 5 mph , 7 km/h
Temperature: 100°F , 38°C
Dew Point: 70°F , 21°C
Humidity: 37%
Barometer: 29.89 inHg , 1012.2 hPa
Clouds: Partly cloudy
Visibility: 10 miles , 16 km
Cloud details: Partly cloudy 7000 ft
2020/08/12 20:55 KLNC 122055Z AUTO 15004KT 10SM SCT070 38/21 A2989 RMK AO2 T03760207
KGKY - Arlington, Texas, USA
Distance from station: SSW 36mi, 59km
Updated: Wed, 12-Aug-2020 3:53pm CDT
Few Clouds
Few Clouds
 Wind from ESE
Wind: ESE 10 mph , 17 km/h, Gust: 18 mph , 30 km/h
Temperature: 102°F , 39°C
Dew Point: 66°F , 19°C
Humidity: 31%
Barometer: 29.88 inHg , 1011.9 hPa
Clouds: Few Clouds
Visibility: 10 miles , 16 km
Cloud details: Few Clouds 7000 ft
2020/08/12 20:53 KGKY 122053Z 12009G16KT 10SM FEW070 39/19 A2988 RMK AO2 SLP107 T03940194 57020 $
 
KTRL - Terrell, Texas, USA
Distance from station: SE 39mi, 63km
Updated: Wed, 12-Aug-2020 3:53pm CDT
Mostly cloudy
Mostly cloudy
 Wind from E
Wind: E 17 mph , 28 km/h, Gust: 32 mph , 52 km/h
Temperature: 90°F , 32°C
Heat Index: 101°F , 38°C
Dew Point: 75°F , 24°C
Humidity: 63%
Barometer: 29.91 inHg , 1012.9 hPa
Clouds: Mostly cloudy
Visibility: 10 miles , 16 km
Cloud details: Mostly cloudy 6500 ft
Mostly cloudy 11000 ft
2020/08/12 20:53 KTRL 122053Z AUTO 09015G28KT 10SM BKN065 BKN110 32/24 A2991 RMK AO2 PK WND 08029/2043 LTG DSNT E AND SE SLP122 T03170239 56016
KGVT - Greenville/Major, Texas, USA
Distance from station: E 40mi, 64km
Updated: Wed, 12-Aug-2020 3:50pm CDT
Clear
Clear
 Wind from ESE
Wind: ESE 16 mph , 26 km/h, Gust: 21 mph , 33 km/h
Temperature: 90°F , 32°C
Heat Index: 101°F , 38°C
Dew Point: 75°F , 24°C
Humidity: 63%
Barometer: 29.94 inHg , 1013.9 hPa
Clouds: Clear
2020/08/12 20:50 KGVT 122050Z AUTO 12014G18KT CLR 32/24 A2994 RMK AO2 PWINO
 
KFTW - Fort Worth, Texas, USA
Distance from station: WSW 40mi, 65km
Updated: Wed, 12-Aug-2020 3:53pm CDT
Clear
Clear
 Wind from ESE
Wind: ESE 9 mph , 15 km/h, Gust: 20 mph , 31 km/h
Temperature: 100°F , 38°C
Barometer: 29.87 inHg , 1011.5 hPa
Clouds: Clear
Visibility: 10 miles , 16 km
2020/08/12 20:53 KFTW 122053Z AUTO 11008G17KT 10SM CLR 38/ A2987 RMK AO2 SLP102 T0378 56020 $
KGYI - Sherman/Denison, Texas, USA
Distance from station: N 43mi, 69km
Updated: Wed, 12-Aug-2020 3:50pm CDT
Clear
Clear
 Wind from ESE
Wind: ESE 16 mph , 26 km/h
Temperature: 91°F , 33°C
Heat Index: 98°F , 37°C
Dew Point: 72°F , 22°C
Humidity: 52%
Barometer: 29.93 inHg , 1013.5 hPa
Clouds: Clear
Visibility: 10 miles , 16 km
2020/08/12 20:50 KGYI 122050Z 11014KT 10SM SKC 33/22 A2993
 
KNFW - Fort Worth Nas, Texas, USA
Distance from station: WSW 45mi, 73km
Updated: Wed, 12-Aug-2020 3:52pm CDT
Clear
Clear
 Wind from SSE
Wind: SSE 10 mph , 17 km/h
Temperature: 104°F , 40°C
Dew Point: 66°F , 19°C
Humidity: 29%
Barometer: 29.88 inHg , 1011.9 hPa
Clouds: Clear
Visibility: 10 miles , 16 km
2020/08/12 20:52 KNFW 122052Z 15009KT 10SM CLR 40/19 A2988 RMK AO2 SLP102 T04000189 56019 VISNO N $
KGLE - Gainesville, Texas, USA
Distance from station: NW 46mi, 74km
Updated: Wed, 12-Aug-2020 3:55pm CDT
Clear
Clear
 Wind from SSE
Wind: SSE 8 mph , 13 km/h
Temperature: 97°F , 36°C
Heat Index: 106°F , 41°C
Dew Point: 72°F , 22°C
Humidity: 44%
Barometer: 29.91 inHg , 1012.9 hPa
Clouds: Clear
Visibility: 10 miles , 16 km
2020/08/12 20:55 KGLE 122055Z AUTO 16007KT 10SM CLR 36/22 A2991 RMK AO2 T03590216 PWINO
 
KJWY - Midlothian/Wax, Texas, USA
Distance from station: SSW 46mi, 74km
Updated: Wed, 12-Aug-2020 3:55pm CDT
Clear
Clear
 Wind from SSE
Wind: SSE 7 mph , 11 km/h
Temperature: 100°F , 38°C
Dew Point: 68°F , 20°C
Humidity: 35%
Barometer: 29.91 inHg , 1012.9 hPa
Clouds: Clear
Visibility: 10 miles , 16 km
2020/08/12 20:55 KJWY 122055Z AUTO 15006KT 10SM CLR 38/20 A2991 RMK AO2 T03840201
KFWS - Fort Worth/88d, Texas, USA
Distance from station: SW 49mi, 79km
Updated: Wed, 12-Aug-2020 3:46pm CDT
Clear
Clear
 Wind from SE
Wind: SE 8 mph , 13 km/h
Temperature: 102°F , 39°C
Dew Point: 64°F , 18°C
Humidity: 29%
Barometer: 29.90 inHg , 1012.5 hPa
Clouds: Clear
Visibility: 10 miles , 16 km
2020/08/12 20:46 KFWS 122046Z 14007KT 10SM CLR 39/18 A2990